createdAt,value
2019-01-15T00:00:16.700Z,71.10
2019-01-15T00:01:16.975Z,71.16
2019-01-15T00:02:16.701Z,71.16
2019-01-15T00:03:16.730Z,71.25
2019-01-15T00:04:16.762Z,71.35
2019-01-15T00:05:16.844Z,71.45
2019-01-15T00:06:16.886Z,72.02
2019-01-15T00:07:17.149Z,71.45
2019-01-15T00:08:16.940Z,71.48
2019-01-15T00:09:16.971Z,71.55
2019-01-15T00:10:16.945Z,71.77
2019-01-15T00:11:17.022Z,72.06
2019-01-15T00:12:17.054Z,71.73
2019-01-15T00:13:17.029Z,71.83
2019-01-15T00:14:17.366Z,71.83
2019-01-15T00:15:17.145Z,71.55
2019-01-15T00:16:17.170Z,71.73
2019-01-15T00:17:17.176Z,71.55
2019-01-15T00:18:17.182Z,71.39
2019-01-15T00:19:17.248Z,71.55
2019-01-15T00:20:17.247Z,71.48
2019-01-15T00:21:17.574Z,71.58
2019-01-15T00:22:17.305Z,71.45
2019-01-15T00:23:17.342Z,71.64
2019-01-15T00:24:17.367Z,71.45
2019-01-15T00:25:17.397Z,71.58
2019-01-15T00:26:17.481Z,71.48
2019-01-15T00:27:17.504Z,71.67
2019-01-15T00:28:17.792Z,71.35
2019-01-15T00:29:17.570Z,71.25
2019-01-15T00:30:17.548Z,71.29
2019-01-15T00:31:17.627Z,71.25
2019-01-15T00:32:17.604Z,71.16
2019-01-15T00:33:17.634Z,71.06
2019-01-15T00:34:17.724Z,71.25
2019-01-15T00:35:17.994Z,71.39
2019-01-15T00:36:17.733Z,71.39
2019-01-15T00:38:17.843Z,71.06
2019-01-15T00:39:17.880Z,71.25
2019-01-15T00:40:17.901Z,71.16
2019-01-15T00:41:17.879Z,71.35
2019-01-15T00:42:18.211Z,71.29
2019-01-15T00:43:17.937Z,71.25
2019-01-15T00:44:17.968Z,71.45
2019-01-15T00:45:18.057Z,71.35
2019-01-15T00:46:18.045Z,71.19
2019-01-15T00:47:18.066Z,71.16
2019-01-15T00:48:18.101Z,71.16
2019-01-15T00:49:18.421Z,71.06
2019-01-15T00:50:18.209Z,71.06
2019-01-15T00:51:18.240Z,71.06
2019-01-15T00:52:18.218Z,71.35
2019-01-15T00:53:18.302Z,71.35
2019-01-15T00:54:18.324Z,71.35
2019-01-15T00:55:18.360Z,71.25
2019-01-15T00:56:18.640Z,71.16
2019-01-15T00:57:18.374Z,71.06
2019-01-15T00:58:18.401Z,71.06
2019-01-15T00:59:18.490Z,71.06
2019-01-15T01:00:18.509Z,71.16
2019-01-15T01:01:18.480Z,71.06
2019-01-15T01:02:18.570Z,70.87
2019-01-15T01:03:18.854Z,70.97
2019-01-15T01:04:18.575Z,70.87
2019-01-15T01:05:18.652Z,70.78
2019-01-15T01:06:18.642Z,70.87
2019-01-15T01:07:18.728Z,70.87
2019-01-15T01:08:18.792Z,71.06
2019-01-15T01:10:19.056Z,71.16
2019-01-15T01:11:18.833Z,70.97
2019-01-15T01:12:22.319Z,70.58
2019-01-15T01:13:18.905Z,70.87
2019-01-15T01:14:18.897Z,70.49
2019-01-15T01:15:18.960Z,70.49
2019-01-15T01:16:18.990Z,70.78
2019-01-15T01:17:19.268Z,70.97
2019-01-15T01:18:19.300Z,70.29
2019-01-15T01:19:19.080Z,70.10
2019-01-15T01:20:19.054Z,70.39
2019-01-15T01:21:19.142Z,70.29
2019-01-15T01:22:19.122Z,70.20
2019-01-15T01:23:19.210Z,70.39
2019-01-15T01:24:19.531Z,70.29
2019-01-15T01:25:19.210Z,70.29
2019-01-15T01:26:19.244Z,70.29
2019-01-15T01:27:19.323Z,70.10
2019-01-15T01:28:19.349Z,70.20
2019-01-15T01:29:19.401Z,70.49
2019-01-15T01:30:19.374Z,70.68
2019-01-15T01:31:19.696Z,70.78
2019-01-15T01:32:19.522Z,70.97
2019-01-15T01:33:19.450Z,70.97
2019-01-15T01:34:19.477Z,70.97
2019-01-15T01:35:19.572Z,70.97
2019-01-15T01:36:19.554Z,70.87
2019-01-15T01:37:19.624Z,70.97
2019-01-15T01:38:19.902Z,70.97
2019-01-15T01:39:19.688Z,70.58
2019-01-15T01:40:19.725Z,70.87
2019-01-15T01:41:19.699Z,70.68
2019-01-15T01:42:19.775Z,70.68
2019-01-15T01:43:19.760Z,70.49
2019-01-15T01:44:19.787Z,70.68
2019-01-15T01:45:20.115Z,70.97
2019-01-15T01:46:19.845Z,70.58
2019-01-15T01:47:20.026Z,70.97
2019-01-15T01:48:19.955Z,70.58
2019-01-15T01:49:19.945Z,70.78
2019-01-15T01:50:19.962Z,71.06
2019-01-15T01:52:20.320Z,70.78
2019-01-15T01:53:20.107Z,71.06
2019-01-15T01:54:20.088Z,70.97
2019-01-15T01:55:20.166Z,70.97
2019-01-15T01:56:20.194Z,70.78
2019-01-15T01:58:20.203Z,71.06
2019-01-15T01:59:20.588Z,70.78
2019-01-15T02:00:20.269Z,70.87
2019-01-15T02:01:20.295Z,70.87
2019-01-15T02:02:20.321Z,70.87
2019-01-15T02:03:20.402Z,70.97
2019-01-15T02:04:20.434Z,70.78
2019-01-15T02:05:20.717Z,71.06
2019-01-15T02:06:20.446Z,71.06
2019-01-15T02:07:20.525Z,70.78
2019-01-15T02:08:20.567Z,70.97
2019-01-15T02:09:20.534Z,70.78
2019-01-15T02:10:20.606Z,70.97
2019-01-15T02:11:20.897Z,70.97
2019-01-15T02:12:20.777Z,71.06
2019-01-15T02:13:20.665Z,71.06
2019-01-15T02:14:20.686Z,71.06
2019-01-15T02:15:20.725Z,70.68
2019-01-15T02:16:20.800Z,71.16
2019-01-15T02:17:21.080Z,70.49
2019-01-15T02:18:20.860Z,70.58
2019-01-15T02:19:20.888Z,70.49
2019-01-15T02:20:20.925Z,70.97
2019-01-15T02:21:20.949Z,70.49
2019-01-15T02:22:20.977Z,71.06
2019-01-15T02:23:21.022Z,70.97
2019-01-15T02:24:21.287Z,70.97
2019-01-15T02:26:21.100Z,71.06
2019-01-15T02:27:21.082Z,71.25
2019-01-15T02:28:21.111Z,71.35
2019-01-15T02:29:21.132Z,71.06
2019-01-15T02:30:21.219Z,71.35
2019-01-15T02:31:21.493Z,71.25
2019-01-15T02:32:21.227Z,71.25
2019-01-15T02:33:21.352Z,71.25
2019-01-15T02:34:21.294Z,71.16
2019-01-15T02:35:21.372Z,71.06
2019-01-15T02:36:21.397Z,70.87
2019-01-15T02:37:21.425Z,70.97
2019-01-15T02:38:21.709Z,71.16
2019-01-15T02:39:21.491Z,71.06
2019-01-15T02:40:21.536Z,71.06
2019-01-15T02:41:21.554Z,71.06
2019-01-15T02:42:21.526Z,70.78
2019-01-15T02:43:21.610Z,70.97
2019-01-15T02:44:21.591Z,71.06
2019-01-15T02:45:21.919Z,70.97
2019-01-15T02:46:21.699Z,71.06
2019-01-15T02:47:21.726Z,71.06
2019-01-15T02:48:21.758Z,70.97
2019-01-15T02:49:21.791Z,71.06
2019-01-15T02:50:21.768Z,70.97
2019-01-15T02:51:21.858Z,71.06
2019-01-15T02:52:22.187Z,70.58
2019-01-15T02:53:21.906Z,70.78
2019-01-15T02:54:21.891Z,70.97
2019-01-15T02:55:21.968Z,71.06
2019-01-15T02:56:22.001Z,71.06
2019-01-15T02:57:22.027Z,70.97
2019-01-15T02:58:22.020Z,71.16
2019-01-15T02:59:22.442Z,71.16
2019-01-15T03:00:22.073Z,71.06
2019-01-15T03:01:22.099Z,70.58
2019-01-15T03:02:22.288Z,70.49
2019-01-15T03:03:22.213Z,70.78
2019-01-15T03:04:22.247Z,70.78
2019-01-15T03:05:22.583Z,70.78
2019-01-15T03:06:22.561Z,70.97
2019-01-15T03:07:22.334Z,70.78
2019-01-15T03:08:22.358Z,70.78
2019-01-15T03:09:22.342Z,70.97
2019-01-15T03:10:22.367Z,70.78
2019-01-15T03:11:22.446Z,70.68
2019-01-15T03:12:22.532Z,70.68
2019-01-15T03:13:22.870Z,70.68
2019-01-15T03:14:22.492Z,70.68
2019-01-15T03:15:22.573Z,70.78
2019-01-15T03:16:22.607Z,70.68
2019-01-15T03:17:22.586Z,70.78
2019-01-15T03:18:22.668Z,70.78
2019-01-15T03:19:22.689Z,70.49
2019-01-15T03:20:22.971Z,70.78
2019-01-15T03:21:22.747Z,70.78
2019-01-15T03:22:22.782Z,70.87
2019-01-15T03:23:22.814Z,70.87
2019-01-15T03:24:22.848Z,71.06
2019-01-15T03:25:22.828Z,70.78
2019-01-15T03:26:22.916Z,70.97
2019-01-15T03:27:23.187Z,70.78
2019-01-15T03:28:22.915Z,70.97
2019-01-15T03:29:22.941Z,70.68
2019-01-15T03:32:23.040Z,70.78
2019-01-15T03:33:23.073Z,70.97
2019-01-15T03:34:23.401Z,71.06
2019-01-15T03:35:23.189Z,71.06
2019-01-15T03:36:23.210Z,70.68
2019-01-15T03:37:23.235Z,70.68
2019-01-15T03:38:23.260Z,70.78
2019-01-15T03:39:23.294Z,70.78
2019-01-15T03:40:23.634Z,70.97
2019-01-15T03:41:23.314Z,70.87
2019-01-15T03:42:23.403Z,70.78
2019-01-15T03:43:23.365Z,70.87
2019-01-15T03:44:23.391Z,70.78
2019-01-15T03:45:23.483Z,70.78
2019-01-15T03:46:23.812Z,70.49
2019-01-15T03:47:23.540Z,70.49
2019-01-15T03:49:23.607Z,70.29
2019-01-15T03:50:23.595Z,70.39
2019-01-15T03:51:23.760Z,70.49
2019-01-15T03:52:23.942Z,70.29
2019-01-15T03:53:23.672Z,70.20
2019-01-15T03:54:23.711Z,70.20
2019-01-15T03:55:23.773Z,70.10
2019-01-15T03:56:23.758Z,70.29
2019-01-15T03:58:23.820Z,70.29
2019-01-15T03:59:24.159Z,69.91
2019-01-15T04:00:23.882Z,69.91
2019-01-15T04:01:23.911Z,70.39
2019-01-15T04:02:23.996Z,70.49
2019-01-15T04:03:24.021Z,70.39
2019-01-15T04:05:24.024Z,70.49
2019-01-15T04:06:24.360Z,70.10
2019-01-15T04:07:24.134Z,70.29
2019-01-15T04:09:24.150Z,70.10
2019-01-15T04:10:24.180Z,70.29
2019-01-15T04:11:24.256Z,70.10
2019-01-15T04:12:24.288Z,70.39
2019-01-15T04:13:24.570Z,70.58
2019-01-15T04:14:24.299Z,70.39
2019-01-15T04:15:24.393Z,70.39
2019-01-15T04:16:24.356Z,70.58
2019-01-15T04:17:24.442Z,70.29
2019-01-15T04:18:24.473Z,70.49
2019-01-15T04:19:24.499Z,70.29
2019-01-15T04:20:24.804Z,70.29
2019-01-15T04:21:24.615Z,70.29
2019-01-15T04:22:24.902Z,70.20
2019-01-15T04:23:24.724Z,70.29
2019-01-15T04:24:24.655Z,70.39
2019-01-15T04:25:24.682Z,70.39
2019-01-15T04:26:24.765Z,70.01
2019-01-15T04:27:25.040Z,70.39
2019-01-15T04:29:24.752Z,70.10
2019-01-15T04:30:24.794Z,70.01
2019-01-15T04:31:24.812Z,70.01
2019-01-15T04:32:24.891Z,70.58
2019-01-15T04:33:24.924Z,70.49
2019-01-15T04:34:25.309Z,70.39
2019-01-15T04:35:25.082Z,70.39
2019-01-15T04:36:25.014Z,70.29
2019-01-15T04:37:24.990Z,69.91
2019-01-15T04:38:25.023Z,70.10
2019-01-15T04:39:25.113Z,70.01
2019-01-15T04:40:25.130Z,70.10
2019-01-15T04:41:25.410Z,70.49
2019-01-15T04:42:25.194Z,70.39
2019-01-15T04:43:25.227Z,70.01
2019-01-15T04:44:25.350Z,70.20
2019-01-15T04:45:25.238Z,70.29
2019-01-15T04:46:25.269Z,70.49
2019-01-15T04:47:25.348Z,70.20
2019-01-15T04:48:25.626Z,70.29
2019-01-15T04:49:25.439Z,70.49
2019-01-15T04:50:25.436Z,70.49
2019-01-15T04:51:25.465Z,70.58
2019-01-15T04:52:25.442Z,70.39
2019-01-15T04:53:25.524Z,70.29
2019-01-15T04:54:25.564Z,70.58
2019-01-15T04:55:25.863Z,70.39
2019-01-15T04:56:25.612Z,70.20
2019-01-15T04:57:25.604Z,70.49
2019-01-15T04:58:25.678Z,70.39
2019-01-15T04:59:25.706Z,70.49
2019-01-15T05:00:25.692Z,70.39
2019-01-15T05:01:25.769Z,70.58
2019-01-15T05:02:26.048Z,70.49
2019-01-15T05:03:25.832Z,70.10
2019-01-15T05:04:25.814Z,70.29
2019-01-15T05:05:25.832Z,70.49
2019-01-15T05:06:25.921Z,70.39
2019-01-15T05:07:25.903Z,70.10
2019-01-15T05:08:25.975Z,70.49
2019-01-15T05:09:26.269Z,70.39
2019-01-15T05:10:26.041Z,70.29
2019-01-15T05:11:26.072Z,70.49
2019-01-15T05:12:26.195Z,70.29
2019-01-15T05:13:27.459Z,70.29
2019-01-15T05:14:26.164Z,70.49
2019-01-15T05:15:26.220Z,70.39
2019-01-15T05:16:26.469Z,70.39
2019-01-15T05:17:26.249Z,70.49
2019-01-15T05:18:26.226Z,70.49
2019-01-15T05:19:26.310Z,70.29
2019-01-15T05:20:26.344Z,70.10
2019-01-15T05:21:26.332Z,70.49
2019-01-15T05:23:26.434Z,70.29
2019-01-15T05:24:26.772Z,70.49
2019-01-15T05:25:26.442Z,70.58
2019-01-15T05:27:26.518Z,70.01
2019-01-15T05:28:26.691Z,70.29
2019-01-15T05:29:26.617Z,70.29
2019-01-15T05:30:26.654Z,70.20
2019-01-15T05:31:26.920Z,70.29
2019-01-15T05:32:26.656Z,70.29
2019-01-15T05:33:26.739Z,70.29
2019-01-15T05:34:26.770Z,70.39
2019-01-15T05:35:26.795Z,70.49
2019-01-15T05:36:26.975Z,70.49
2019-01-15T05:37:26.858Z,70.39
2019-01-15T05:38:27.131Z,70.39
2019-01-15T05:39:26.918Z,70.29
2019-01-15T05:40:26.954Z,70.39
2019-01-15T05:41:26.924Z,70.49
2019-01-15T05:42:27.008Z,70.58
2019-01-15T05:43:27.031Z,70.39
2019-01-15T05:44:27.018Z,70.39
2019-01-15T05:45:27.555Z,69.81
2019-01-15T05:46:27.072Z,69.91
2019-01-15T05:47:27.194Z,70.01
2019-01-15T05:48:27.194Z,69.91
2019-01-15T05:49:27.162Z,70.29
2019-01-15T05:50:27.243Z,70.20
2019-01-15T05:51:27.292Z,70.20
2019-01-15T05:52:27.557Z,69.81
2019-01-15T05:54:27.320Z,70.49
2019-01-15T05:55:27.348Z,70.01
2019-01-15T05:56:27.432Z,70.39
2019-01-15T05:57:27.453Z,70.39
2019-01-15T05:58:27.757Z,70.10
2019-01-15T05:59:27.515Z,70.39
2019-01-15T06:00:27.541Z,70.10
2019-01-15T06:01:27.531Z,69.81
2019-01-15T06:02:27.552Z,70.10
2019-01-15T06:03:27.643Z,70.20
2019-01-15T06:04:28.006Z,70.20
2019-01-15T06:05:27.695Z,70.10
2019-01-15T06:06:27.693Z,70.20
2019-01-15T06:07:33.586Z,70.10
2019-01-15T06:08:27.734Z,70.01
2019-01-15T06:09:27.919Z,70.10
2019-01-15T06:10:28.097Z,70.10
2019-01-15T06:11:27.885Z,70.10
2019-01-15T06:12:27.913Z,69.91
2019-01-15T06:13:27.892Z,69.72
2019-01-15T06:14:27.971Z,69.72
2019-01-15T06:15:28.013Z,69.81
2019-01-15T06:16:27.974Z,69.72
2019-01-15T06:17:28.125Z,69.91
2019-01-15T06:18:28.189Z,69.53
2019-01-15T06:19:28.115Z,69.72
2019-01-15T06:20:28.154Z,69.81
2019-01-15T06:21:28.128Z,70.01
2019-01-15T06:22:28.211Z,69.91
2019-01-15T06:23:28.492Z,69.53
2019-01-15T06:24:28.225Z,69.81
2019-01-15T06:25:28.303Z,69.53
2019-01-15T06:27:28.358Z,69.72
2019-01-15T06:28:28.393Z,69.62
2019-01-15T06:29:28.374Z,69.43
2019-01-15T06:30:28.703Z,69.72
2019-01-15T06:31:28.479Z,69.81
2019-01-15T06:32:28.476Z,69.91
2019-01-15T06:33:28.542Z,69.91
2019-01-15T06:34:28.520Z,70.01
2019-01-15T06:35:28.604Z,70.01
2019-01-15T06:36:28.631Z,70.01
2019-01-15T06:37:28.911Z,69.91
2019-01-15T06:38:28.641Z,70.01
2019-01-15T06:39:28.730Z,69.91
2019-01-15T06:40:28.697Z,69.81
2019-01-15T06:41:28.786Z,69.24
2019-01-15T06:42:28.810Z,69.53
2019-01-15T06:43:28.818Z,69.24
2019-01-15T06:44:29.244Z,68.85
2019-01-15T06:45:28.909Z,69.05
2019-01-15T06:46:28.934Z,69.24
2019-01-15T06:48:28.943Z,68.95
2019-01-15T06:51:29.091Z,69.05
2019-01-15T06:52:29.121Z,69.14
2019-01-15T06:54:29.125Z,69.43
2019-01-15T06:55:29.225Z,69.14
2019-01-15T06:56:29.238Z,69.34
2019-01-15T06:57:29.222Z,69.05
2019-01-15T06:58:29.553Z,69.05
2019-01-15T06:59:29.276Z,69.14
2019-01-15T07:00:29.324Z,68.85
2019-01-15T07:01:29.385Z,69.05
2019-01-15T07:02:29.369Z,68.66
2019-01-15T07:03:29.446Z,68.57
2019-01-15T07:04:29.477Z,69.05
2019-01-15T07:05:29.771Z,68.85
2019-01-15T07:06:29.491Z,68.95
2019-01-15T07:07:29.568Z,69.24
2019-01-15T07:09:29.628Z,69.14
2019-01-15T07:10:29.607Z,68.66
2019-01-15T07:11:29.715Z,68.76
2019-01-15T07:12:29.722Z,68.66
2019-01-15T07:13:29.702Z,68.57
2019-01-15T07:14:29.783Z,68.37
2019-01-15T07:15:29.821Z,68.66
2019-01-15T07:16:29.793Z,68.66
2019-01-15T07:17:29.868Z,68.66
2019-01-15T07:18:30.152Z,68.85
2019-01-15T07:19:29.931Z,68.85
2019-01-15T07:20:29.964Z,68.66
2019-01-15T07:22:30.044Z,68.66
2019-01-15T07:24:30.029Z,68.95
2019-01-15T07:25:30.363Z,68.85
2019-01-15T07:26:30.095Z,68.57
2019-01-15T07:27:30.208Z,69.05
2019-01-15T07:28:30.215Z,68.57
2019-01-15T07:30:30.269Z,68.57
2019-01-15T07:31:30.541Z,68.37
2019-01-15T07:32:30.483Z,68.08
2019-01-15T07:33:30.310Z,68.08
2019-01-15T07:34:30.336Z,68.57
2019-01-15T07:35:30.417Z,67.90
2019-01-15T07:36:30.397Z,68.08
2019-01-15T07:37:30.781Z,68.28
2019-01-15T07:38:30.455Z,68.08
2019-01-15T07:39:30.534Z,67.80
2019-01-15T07:40:30.509Z,67.99
2019-01-15T07:41:30.545Z,68.18
2019-01-15T07:42:30.644Z,68.18
2019-01-15T07:43:30.658Z,67.99
2019-01-15T07:44:30.634Z,68.47
2019-01-15T07:45:30.660Z,67.80
2019-01-15T07:46:30.688Z,67.90
2019-01-15T07:47:30.776Z,67.51
2019-01-15T07:48:30.802Z,67.70
2019-01-15T07:49:30.782Z,67.80
2019-01-15T07:50:31.118Z,68.18
2019-01-15T07:51:30.892Z,67.80
2019-01-15T07:52:30.929Z,67.61
2019-01-15T07:53:30.957Z,67.41
2019-01-15T07:54:30.940Z,67.41
2019-01-15T07:55:31.013Z,67.61
2019-01-15T07:56:31.122Z,67.32
2019-01-15T07:57:31.373Z,66.84
2019-01-15T07:58:31.113Z,66.74
2019-01-15T07:59:31.135Z,67.13
2019-01-15T08:00:31.180Z,67.61
2019-01-15T08:01:31.199Z,67.61
2019-01-15T08:03:31.261Z,67.03
2019-01-15T08:04:31.543Z,66.84
2019-01-15T08:05:31.322Z,66.84
2019-01-15T08:06:31.294Z,66.84
2019-01-15T08:07:31.554Z,66.74
2019-01-15T08:08:31.415Z,67.13
2019-01-15T08:09:31.419Z,66.84
2019-01-15T08:10:31.487Z,66.93
2019-01-15T08:11:31.749Z,66.74
2019-01-15T08:12:31.554Z,66.84
2019-01-15T08:13:31.514Z,66.16
2019-01-15T08:14:31.554Z,66.36
2019-01-15T08:15:31.573Z,66.36
2019-01-15T08:16:31.651Z,66.36
2019-01-15T08:17:31.634Z,66.84
2019-01-15T08:18:31.684Z,66.36
2019-01-15T08:19:31.742Z,66.36
2019-01-15T08:20:31.781Z,66.16
2019-01-15T08:21:31.800Z,66.46
2019-01-15T08:22:31.787Z,66.93
2019-01-15T08:23:31.860Z,66.64
2019-01-15T08:24:32.441Z,66.74
2019-01-15T08:25:31.876Z,66.84
2019-01-15T08:26:31.952Z,66.93
2019-01-15T08:27:31.978Z,66.74
2019-01-15T08:28:31.958Z,66.16
2019-01-15T08:29:31.992Z,66.16
2019-01-15T08:30:32.316Z,66.46
2019-01-15T08:31:32.106Z,66.36
2019-01-15T08:32:32.076Z,66.74
2019-01-15T08:33:32.111Z,66.46
2019-01-15T08:34:32.136Z,66.36
2019-01-15T08:35:32.223Z,66.36
2019-01-15T08:36:32.501Z,66.16
2019-01-15T08:37:32.243Z,66.16
2019-01-15T08:38:32.264Z,66.36
2019-01-15T08:39:32.286Z,66.74
2019-01-15T08:41:32.352Z,66.74
2019-01-15T08:42:32.432Z,66.84
2019-01-15T08:44:32.441Z,66.64
2019-01-15T08:45:32.520Z,66.46
2019-01-15T08:46:32.550Z,66.36
2019-01-15T08:47:32.584Z,67.03
2019-01-15T08:48:32.561Z,66.93
2019-01-15T08:49:32.593Z,67.13
2019-01-15T08:50:32.621Z,67.03
2019-01-15T08:51:32.709Z,66.93
2019-01-15T08:53:32.759Z,66.84
2019-01-15T08:54:33.045Z,66.36
2019-01-15T08:55:32.831Z,66.93
2019-01-15T08:56:32.902Z,66.93
2019-01-15T08:58:32.915Z,67.13
2019-01-15T09:00:32.986Z,67.13
2019-01-15T09:01:33.306Z,67.03
2019-01-15T09:02:32.983Z,67.13
2019-01-15T09:03:33.066Z,66.84
2019-01-15T09:04:33.100Z,67.03
2019-01-15T09:05:33.077Z,67.32
2019-01-15T09:06:33.107Z,67.13
2019-01-15T09:07:33.436Z,67.22
2019-01-15T09:08:33.266Z,67.32
2019-01-15T09:09:33.203Z,67.32
2019-01-15T09:10:33.229Z,67.41
2019-01-15T09:11:33.312Z,66.84
2019-01-15T09:12:33.340Z,66.84
2019-01-15T09:13:33.662Z,66.84
2019-01-15T09:14:33.353Z,66.84
2019-01-15T09:15:33.431Z,67.32
2019-01-15T09:16:33.417Z,67.03
2019-01-15T09:17:33.482Z,67.32
2019-01-15T09:18:33.524Z,66.93
2019-01-15T09:19:33.804Z,66.80
2019-01-15T09:21:33.558Z,66.90
2019-01-15T09:22:33.594Z,66.84
2019-01-15T09:23:33.770Z,66.93
2019-01-15T09:24:33.694Z,67.32
2019-01-15T09:25:33.776Z,67.13
2019-01-15T09:26:34.011Z,66.93
2019-01-15T09:28:33.817Z,67.22
2019-01-15T09:29:33.801Z,67.13
2019-01-15T09:30:33.830Z,67.32
2019-01-15T09:31:33.912Z,67.13
2019-01-15T09:32:33.885Z,67.32
2019-01-15T09:33:34.342Z,67.03
2019-01-15T09:34:34.003Z,66.93
2019-01-15T09:35:34.030Z,67.13
2019-01-15T09:37:34.045Z,66.74
2019-01-15T09:38:34.148Z,67.13
2019-01-15T09:39:34.149Z,66.46
2019-01-15T09:40:34.233Z,66.84
2019-01-15T09:41:34.212Z,66.84
2019-01-15T09:42:34.238Z,67.03
2019-01-15T09:43:34.271Z,66.93
2019-01-15T09:44:34.450Z,66.36
2019-01-15T09:45:34.340Z,66.46
2019-01-15T09:46:34.608Z,66.46
2019-01-15T09:47:34.494Z,67.13
2019-01-15T09:48:34.453Z,66.74
2019-01-15T09:49:34.408Z,67.32
2019-01-15T09:50:34.484Z,66.74
2019-01-15T09:51:34.528Z,66.36
2019-01-15T09:52:34.492Z,66.36
2019-01-15T09:53:34.534Z,66.26
2019-01-15T09:54:34.552Z,66.84
2019-01-15T09:55:35.483Z,66.55
2019-01-15T09:56:34.662Z,66.55
2019-01-15T09:57:34.644Z,66.84
2019-01-15T09:58:34.685Z,66.36
2019-01-15T09:59:34.760Z,66.36
2019-01-15T10:00:34.737Z,66.74
2019-01-15T10:01:34.821Z,66.46
2019-01-15T10:02:34.857Z,66.46
2019-01-15T10:03:34.885Z,66.46
2019-01-15T10:04:34.854Z,66.36
2019-01-15T10:05:34.939Z,66.46
2019-01-15T10:06:34.970Z,66.26
2019-01-15T10:07:35.014Z,66.64
2019-01-15T10:08:35.026Z,66.55
2019-01-15T10:09:35.011Z,66.36
2019-01-15T10:10:35.052Z,66.74
2019-01-15T10:11:35.127Z,66.64
2019-01-15T10:12:35.155Z,65.97
2019-01-15T10:13:35.199Z,65.69
2019-01-15T10:14:41.208Z,66.36
2019-01-15T10:15:35.194Z,65.88
2019-01-15T10:16:35.275Z,65.97
2019-01-15T10:17:35.257Z,65.78
2019-01-15T10:19:35.314Z,65.78
2019-01-15T10:20:35.401Z,65.97
2019-01-15T10:21:35.374Z,66.36
2019-01-15T10:22:35.407Z,66.74
2019-01-15T10:23:35.885Z,66.16
2019-01-15T10:24:35.525Z,66.30
2019-01-15T10:25:35.513Z,66.26
2019-01-15T10:26:35.528Z,66.30
2019-01-15T10:27:35.609Z,65.69
2019-01-15T10:28:35.641Z,65.88
2019-01-15T10:29:35.663Z,65.97
2019-01-15T10:30:35.965Z,65.30
2019-01-15T10:31:35.683Z,65.97
2019-01-15T10:32:35.763Z,65.78
2019-01-15T10:33:35.793Z,65.49
2019-01-15T10:34:35.779Z,65.72
2019-01-15T10:35:35.851Z,65.30
2019-01-15T10:36:35.834Z,65.62
2019-01-15T10:37:36.171Z,65.30
2019-01-15T10:38:35.991Z,65.53
2019-01-15T10:39:35.973Z,65.97
2019-01-15T10:40:36.003Z,65.20
2019-01-15T10:41:35.983Z,65.30
2019-01-15T10:42:36.070Z,65.40
2019-01-15T10:43:36.102Z,65.49
2019-01-15T10:44:36.375Z,65.43
2019-01-15T10:45:36.106Z,65.40
2019-01-15T10:46:36.187Z,65.43
2019-01-15T10:47:36.170Z,65.30
2019-01-15T10:48:36.211Z,65.30
2019-01-15T10:49:36.283Z,65.49
2019-01-15T10:50:36.311Z,65.97
2019-01-15T10:51:36.599Z,65.69
2019-01-15T10:52:36.325Z,65.81
2019-01-15T10:53:36.352Z,66.00
2019-01-15T10:55:36.459Z,65.53
2019-01-15T10:56:36.494Z,65.30
2019-01-15T10:57:36.479Z,65.43
2019-01-15T10:58:36.805Z,64.95
2019-01-15T10:59:36.579Z,64.76
2019-01-15T11:01:36.648Z,64.95
2019-01-15T11:02:36.672Z,64.56
2019-01-15T11:03:36.744Z,64.66
2019-01-15T11:04:36.684Z,65.05
2019-01-15T11:05:36.785Z,64.43
2019-01-15T11:06:36.808Z,64.56
2019-01-15T11:07:36.841Z,64.47
2019-01-15T11:08:36.816Z,64.56
2019-01-15T11:09:36.836Z,64.66
2019-01-15T11:10:36.872Z,65.14
2019-01-15T11:11:37.199Z,64.47
2019-01-15T11:13:36.967Z,64.76
2019-01-15T11:14:37.003Z,64.37
2019-01-15T11:15:43.153Z,64.66
2019-01-15T11:16:37.107Z,64.28
2019-01-15T11:17:37.443Z,64.37
2019-01-15T11:18:37.178Z,64.76
2019-01-15T11:19:37.146Z,64.56
2019-01-15T11:21:37.203Z,64.09
2019-01-15T11:22:37.235Z,64.09
2019-01-15T11:24:37.651Z,64.18
2019-01-15T11:25:37.331Z,63.99
2019-01-15T11:26:37.416Z,64.09
2019-01-15T11:27:37.445Z,64.18
2019-01-15T11:28:37.420Z,64.18
2019-01-15T11:29:37.504Z,63.99
2019-01-15T11:30:37.489Z,64.28
2019-01-15T11:31:37.562Z,64.85
2019-01-15T11:33:37.623Z,64.18
2019-01-15T11:34:37.615Z,64.09
2019-01-15T11:35:37.690Z,63.89
2019-01-15T11:36:37.672Z,64.18
2019-01-15T11:37:37.698Z,64.28
2019-01-15T11:39:37.756Z,64.28
2019-01-15T11:40:37.855Z,64.18
2019-01-15T11:41:37.823Z,64.09
2019-01-15T11:43:39.031Z,64.09
2019-01-15T11:44:37.964Z,64.18
2019-01-15T11:45:37.943Z,64.47
2019-01-15T11:46:37.975Z,64.09
2019-01-15T11:47:38.006Z,63.89
2019-01-15T11:48:38.329Z,64.09
2019-01-15T11:49:38.121Z,64.37
2019-01-15T11:50:38.093Z,64.47
2019-01-15T11:51:38.174Z,64.37
2019-01-15T11:52:38.208Z,64.28
2019-01-15T11:53:38.190Z,63.89
2019-01-15T11:54:38.351Z,64.37
2019-01-15T11:55:38.309Z,63.89
2019-01-15T11:56:38.301Z,63.70
2019-01-15T11:57:38.312Z,63.70
2019-01-15T11:58:38.336Z,64.09
2019-01-15T11:59:38.425Z,63.89
2019-01-15T12:00:38.714Z,63.89
2019-01-15T12:01:38.429Z,63.89
2019-01-15T12:02:38.476Z,63.79
2019-01-15T12:03:38.499Z,63.51
2019-01-15T12:04:38.583Z,63.89
2019-01-15T12:05:38.611Z,64.37
2019-01-15T12:06:38.889Z,64.28
2019-01-15T12:07:38.667Z,64.09
2019-01-15T12:08:38.645Z,64.09
2019-01-15T12:09:38.676Z,64.09
2019-01-15T12:10:38.758Z,64.28
2019-01-15T12:11:38.795Z,64.09
2019-01-15T12:12:38.770Z,63.79
2019-01-15T12:13:39.121Z,63.89
2019-01-15T12:14:38.832Z,63.32
2019-01-15T12:15:38.921Z,63.60
2019-01-15T12:16:38.945Z,63.60
2019-01-15T12:17:38.948Z,63.89
2019-01-15T12:18:39.024Z,63.89
2019-01-15T12:19:39.049Z,64.09
2019-01-15T12:20:39.319Z,64.37
2019-01-15T12:22:39.141Z,64.09
2019-01-15T12:23:39.158Z,63.99
2019-01-15T12:24:39.143Z,63.99
2019-01-15T12:25:39.166Z,63.79
2019-01-15T12:26:39.201Z,63.70
2019-01-15T12:27:39.283Z,63.99
2019-01-15T12:28:39.316Z,63.89
2019-01-15T12:29:39.291Z,63.60
2019-01-15T12:30:39.378Z,63.60
2019-01-15T12:31:39.407Z,63.51
2019-01-15T12:32:39.389Z,63.70
2019-01-15T12:33:39.414Z,63.70
2019-01-15T12:34:39.452Z,63.70
2019-01-15T12:35:39.526Z,63.41
2019-01-15T12:37:39.582Z,63.70
2019-01-15T12:38:39.574Z,63.60
2019-01-15T12:39:39.596Z,63.41
2019-01-15T12:40:39.687Z,63.41
2019-01-15T12:41:39.709Z,63.02
2019-01-15T12:42:39.689Z,63.22
2019-01-15T12:43:39.774Z,62.93
2019-01-15T12:44:39.786Z,62.74
2019-01-15T12:45:40.093Z,62.74
2019-01-15T12:46:39.863Z,62.74
2019-01-15T12:47:39.894Z,63.02
2019-01-15T12:49:39.909Z,63.70
2019-01-15T12:50:39.940Z,63.41
2019-01-15T12:51:40.321Z,63.51
2019-01-15T12:52:40.052Z,62.64
2019-01-15T12:53:40.037Z,63.32
2019-01-15T12:54:40.062Z,63.51
2019-01-15T12:55:40.144Z,63.12
2019-01-15T12:56:40.171Z,63.41
2019-01-15T12:57:40.165Z,63.79
2019-01-15T12:58:40.234Z,63.22
2019-01-15T12:59:40.259Z,63.70
2019-01-15T13:00:40.251Z,63.12
2019-01-15T13:01:40.277Z,62.74
2019-01-15T13:02:40.308Z,62.64
2019-01-15T13:03:40.430Z,62.74
2019-01-15T13:04:40.420Z,62.93
2019-01-15T13:05:40.392Z,62.84
2019-01-15T13:06:40.432Z,63.41
2019-01-15T13:07:40.462Z,63.02
2019-01-15T13:08:40.542Z,63.38
2019-01-15T13:09:40.823Z,63.57
2019-01-15T13:10:40.543Z,63.12
2019-01-15T13:11:40.636Z,63.51
2019-01-15T13:12:40.612Z,63.38
2019-01-15T13:13:40.695Z,63.32
2019-01-15T13:14:40.666Z,63.48
2019-01-15T13:15:40.754Z,63.67
2019-01-15T13:17:41.076Z,63.32
2019-01-15T13:18:40.840Z,63.48
2019-01-15T13:19:40.820Z,63.38
2019-01-15T13:20:40.902Z,63.19
2019-01-15T13:21:40.895Z,63.48
2019-01-15T13:22:40.968Z,63.57
2019-01-15T13:23:40.997Z,63.67
2019-01-15T13:24:40.978Z,63.67
2019-01-15T13:25:41.017Z,63.09
2019-01-15T13:26:41.037Z,63.57
2019-01-15T13:27:41.071Z,62.99
2019-01-15T13:28:41.150Z,63.48
2019-01-15T13:29:41.201Z,63.48
2019-01-15T13:30:41.158Z,63.57
2019-01-15T13:31:41.254Z,63.48
2019-01-15T13:32:41.224Z,63.67
2019-01-15T13:33:41.297Z,63.67
2019-01-15T13:34:41.332Z,63.48
2019-01-15T13:35:41.394Z,63.38
2019-01-15T13:36:41.699Z,63.48
2019-01-15T13:37:41.372Z,63.38
2019-01-15T13:38:41.405Z,63.57